KOKC/OKC METAR and TAF weather

Enter ICAO airport designator
Station Type Date Time Source
KOKC METAR 2020/02/27 13:52 UTC NOAA

KOKC 271352Z 20007KT 10SM CLR M03/M06 A3028 RMK AO2 SLP265 T10331061


Station Type Date Time Source
KOKC Decoded METAR 2020/02/27 13:52 UTC NOAA

WILL ROGERS WORLD AIRPORT, OK, United States (KOKC) 35-23N 97-36W 390M
Feb 27, 2020 - 08:52 AM EST / 2020.02.27 1352 UTC
Wind: from the SSW (200 degrees) at 8 MPH (7 KT):0
Visibility: 10 mile(s):0
Sky conditions: clear
Temperature: 26.1 F (-3.3 C)
Windchill: 17 F (-8 C):1
Dew Point: 21.0 F (-6.1 C)
Relative Humidity: 80%
Pressure (altimeter): 30.28 in. Hg (1025 hPa)
ob: KOKC 271352Z 20007KT 10SM CLR M03/M06 A3028 RMK AO2 SLP265 T10331061
cycle: 14

Station Type Date Time Source
KOKC TAF 2020/02/27 12:22 UTC NOAA

TAF KOKC 271120Z 2712/2812 19006KT P6SM SCT150
FM271400 20014G21KT P6SM SKC
FM272000 24015G21KT P6SM FEW080 SCT250
FM280000 34012KT P6SM SCT080

Example: see airport list